sensor_id;sensor_type;location;lat;lon;timestamp;pressure;altitude;pressure_sealevel;temperature;humidity
64853;BME280;56050;55.558;-4.644;2023-05-11T00:01:05;101085.88;;;12.38;63.77
64853;BME280;56050;55.558;-4.644;2023-05-11T00:03:32;101085.88;;;12.34;63.91
64853;BME280;56050;55.558;-4.644;2023-05-11T00:05:58;101084.72;;;12.32;64.07
64853;BME280;56050;55.558;-4.644;2023-05-11T00:08:23;101076.66;;;12.28;64.04
64853;BME280;56050;55.558;-4.644;2023-05-11T00:10:49;101084.34;;;12.26;64.17
64853;BME280;56050;55.558;-4.644;2023-05-11T00:13:15;101088.59;;;12.24;64.19
64853;BME280;56050;55.558;-4.644;2023-05-11T00:15:40;101087.06;;;12.19;64.44
64853;BME280;56050;55.558;-4.644;2023-05-11T00:18:06;101086.28;;;12.19;64.47
64853;BME280;56050;55.558;-4.644;2023-05-11T00:20:31;101086.69;;;12.17;64.34
64853;BME280;56050;55.558;-4.644;2023-05-11T00:22:56;101091.31;;;12.17;64.46
64853;BME280;56050;55.558;-4.644;2023-05-11T00:25:22;101094.78;;;12.17;64.39
64853;BME280;56050;55.558;-4.644;2023-05-11T00:27:47;101092.84;;;12.18;64.37
64853;BME280;56050;55.558;-4.644;2023-05-11T00:30:13;101089.75;;;12.16;64.37
64853;BME280;56050;55.558;-4.644;2023-05-11T00:32:43;101093.25;;;12.16;64.31
64853;BME280;56050;55.558;-4.644;2023-05-11T00:35:09;101089.75;;;12.16;64.58
64853;BME280;56050;55.558;-4.644;2023-05-11T00:37:36;101093.63;;;12.15;64.60
64853;BME280;56050;55.558;-4.644;2023-05-11T00:40:02;101094.78;;;12.14;64.52
64853;BME280;56050;55.558;-4.644;2023-05-11T00:42:27;101091.72;;;12.12;64.52
64853;BME280;56050;55.558;-4.644;2023-05-11T00:44:53;101102.50;;;12.12;64.58
64853;BME280;56050;55.558;-4.644;2023-05-11T00:47:18;101097.84;;;12.12;64.78
64853;BME280;56050;55.558;-4.644;2023-05-11T00:49:44;101102.88;;;12.14;64.80
64853;BME280;56050;55.558;-4.644;2023-05-11T00:52:10;101099.03;;;12.18;64.88
64853;BME280;56050;55.558;-4.644;2023-05-11T00:54:35;101101.31;;;12.23;65.07
64853;BME280;56050;55.558;-4.644;2023-05-11T00:57:02;101106.34;;;12.28;64.97
64853;BME280;56050;55.558;-4.644;2023-05-11T00:59:28;101106.75;;;12.34;64.93
64853;BME280;56050;55.558;-4.644;2023-05-11T01:01:54;101103.63;;;12.39;64.89
64853;BME280;56050;55.558;-4.644;2023-05-11T01:04:20;101109.41;;;12.45;64.98
64853;BME280;56050;55.558;-4.644;2023-05-11T01:06:58;101102.47;;;12.47;65.22
64853;BME280;56050;55.558;-4.644;2023-05-11T01:15:09;101112.06;;;12.62;65.15
64853;BME280;56050;55.558;-4.644;2023-05-11T01:17:48;101119.78;;;12.67;65.25
64853;BME280;56050;55.558;-4.644;2023-05-11T01:20:17;101121.31;;;12.72;65.04
64853;BME280;56050;55.558;-4.644;2023-05-11T01:31:45;101118.94;;;12.88;64.99
64853;BME280;56050;55.558;-4.644;2023-05-11T01:34:19;101111.63;;;12.88;65.06
64853;BME280;56050;55.558;-4.644;2023-05-11T01:36:53;101117.41;;;12.90;64.89
64853;BME280;56050;55.558;-4.644;2023-05-11T01:39:25;101127.06;;;12.91;65.00
64853;BME280;56050;55.558;-4.644;2023-05-11T01:41:53;101121.66;;;12.91;65.03
64853;BME280;56050;55.558;-4.644;2023-05-11T01:44:22;101116.25;;;12.91;64.94
64853;BME280;56050;55.558;-4.644;2023-05-11T04:32:37;101233.72;;;12.55;66.59
64853;BME280;56050;55.558;-4.644;2023-05-11T04:35:03;101234.09;;;12.75;65.99
64853;BME280;56050;55.558;-4.644;2023-05-11T04:37:28;101242.97;;;12.86;65.54
64853;BME280;56050;55.558;-4.644;2023-05-11T04:39:54;101234.06;;;12.89;65.48
64853;BME280;56050;55.558;-4.644;2023-05-11T04:42:20;101237.56;;;12.89;65.45
64853;BME280;56050;55.558;-4.644;2023-05-11T04:44:46;101242.19;;;12.89;65.66
64853;BME280;56050;55.558;-4.644;2023-05-11T04:47:11;101239.06;;;12.87;65.62
64853;BME280;56050;55.558;-4.644;2023-05-11T04:49:36;101243.75;;;12.86;65.86
64853;BME280;56050;55.558;-4.644;2023-05-11T04:52:03;101243.34;;;12.84;65.81
64853;BME280;56050;55.558;-4.644;2023-05-11T04:54:29;101241.81;;;12.83;65.86
64853;BME280;56050;55.558;-4.644;2023-05-11T04:56:55;101246.44;;;12.83;65.81
64853;BME280;56050;55.558;-4.644;2023-05-11T04:59:21;101246.44;;;12.83;65.76
64853;BME280;56050;55.558;-4.644;2023-05-11T05:01:47;101249.13;;;12.83;65.85
64853;BME280;56050;55.558;-4.644;2023-05-11T05:04:12;101249.13;;;12.83;65.84
64853;BME280;56050;55.558;-4.644;2023-05-11T05:06:38;101261.13;;;12.85;66.07
64853;BME280;56050;55.558;-4.644;2023-05-11T05:09:03;101266.91;;;12.87;65.90
64853;BME280;56050;55.558;-4.644;2023-05-11T05:11:29;101262.25;;;12.88;65.99
64853;BME280;56050;55.558;-4.644;2023-05-11T05:13:54;101271.53;;;12.90;65.82
64853;BME280;56050;55.558;-4.644;2023-05-11T05:16:19;101264.19;;;12.91;66.06
64853;BME280;56050;55.558;-4.644;2023-05-11T05:18:45;101274.59;;;12.92;66.19
64853;BME280;56050;55.558;-4.644;2023-05-11T05:21:10;101272.31;;;12.94;65.97
64853;BME280;56050;55.558;-4.644;2023-05-11T05:23:36;101276.16;;;12.97;66.18
64853;BME280;56050;55.558;-4.644;2023-05-11T05:26:01;101274.63;;;13.00;66.06
64853;BME280;56050;55.558;-4.644;2023-05-11T05:28:27;101275.00;;;13.02;65.82
64853;BME280;56050;55.558;-4.644;2023-05-11T05:30:52;101282.34;;;13.05;66.03
64853;BME280;56050;55.558;-4.644;2023-05-11T05:33:17;101281.19;;;13.06;65.97
64853;BME280;56050;55.558;-4.644;2023-05-11T05:35:43;101288.13;;;13.07;66.12
64853;BME280;56050;55.558;-4.644;2023-05-11T05:38:10;101293.97;;;13.09;66.16
64853;BME280;56050;55.558;-4.644;2023-05-11T05:40:36;101297.41;;;13.09;66.08
64853;BME280;56050;55.558;-4.644;2023-05-11T05:43:03;101298.97;;;13.10;66.33
64853;BME280;56050;55.558;-4.644;2023-05-11T05:45:29;101298.97;;;13.10;66.11
64853;BME280;56050;55.558;-4.644;2023-05-11T05:47:55;101295.50;;;13.10;66.39
64853;BME280;56050;55.558;-4.644;2023-05-11T05:50:21;101300.53;;;13.11;66.10
64853;BME280;56050;55.558;-4.644;2023-05-11T05:52:46;101306.31;;;13.10;66.31
64853;BME280;56050;55.558;-4.644;2023-05-11T05:55:12;101306.31;;;13.10;66.44
64853;BME280;56050;55.558;-4.644;2023-05-11T05:57:37;101309.78;;;13.10;66.34
64853;BME280;56050;55.558;-4.644;2023-05-11T06:00:03;101309.00;;;13.10;66.32
64853;BME280;56050;55.558;-4.644;2023-05-11T06:02:29;101317.13;;;13.10;66.46
64853;BME280;56050;55.558;-4.644;2023-05-11T06:04:55;101314.06;;;13.08;66.41
64853;BME280;56050;55.558;-4.644;2023-05-11T06:07:20;101317.50;;;13.05;66.55
64853;BME280;56050;55.558;-4.644;2023-05-11T06:09:46;101319.41;;;13.04;66.59
64853;BME280;56050;55.558;-4.644;2023-05-11T06:12:11;101323.69;;;13.05;66.53
64853;BME280;56050;55.558;-4.644;2023-05-11T06:14:36;101324.84;;;13.04;66.75
64853;BME280;56050;55.558;-4.644;2023-05-11T06:17:02;101332.56;;;13.06;66.56
64853;BME280;56050;55.558;-4.644;2023-05-11T06:19:27;101339.50;;;13.07;66.52
64853;BME280;56050;55.558;-4.644;2023-05-11T06:21:52;101334.91;;;13.07;66.69
64853;BME280;56050;55.558;-4.644;2023-05-11T06:24:18;101342.66;;;13.09;66.78
64853;BME280;56050;55.558;-4.644;2023-05-11T06:26:43;101352.69;;;13.12;66.83
64853;BME280;56050;55.558;-4.644;2023-05-11T06:29:09;101352.31;;;13.13;66.98
64853;BME280;56050;55.558;-4.644;2023-05-11T06:31:34;101360.00;;;13.15;66.68
64853;BME280;56050;55.558;-4.644;2023-05-11T06:34:01;101365.06;;;13.16;66.88
64853;BME280;56050;55.558;-4.644;2023-05-11T06:36:27;101366.59;;;13.21;66.97
64853;BME280;56050;55.558;-4.644;2023-05-11T06:38:52;101361.97;;;13.25;66.95
64853;BME280;56050;55.558;-4.644;2023-05-11T06:41:18;101374.31;;;13.29;66.82
64853;BME280;56050;55.558;-4.644;2023-05-11T06:43:43;101375.09;;;13.33;66.88
64853;BME280;56050;55.558;-4.644;2023-05-11T06:46:09;101368.13;;;13.36;66.73
64853;BME280;56050;55.558;-4.644;2023-05-11T06:48:34;101376.63;;;13.41;66.74
64853;BME280;56050;55.558;-4.644;2023-05-11T06:50:59;101382.00;;;13.45;66.77
64853;BME280;56050;55.558;-4.644;2023-05-11T06:53:25;101387.06;;;13.50;66.76
64853;BME280;56050;55.558;-4.644;2023-05-11T06:55:53;101381.25;;;13.55;66.91
64853;BME280;56050;55.558;-4.644;2023-05-11T06:58:18;101383.16;;;13.62;66.92
64853;BME280;56050;55.558;-4.644;2023-05-11T07:00:44;101392.03;;;13.69;66.72
64853;BME280;56050;55.558;-4.644;2023-05-11T07:03:10;101391.66;;;13.74;66.67
64853;BME280;56050;55.558;-4.644;2023-05-11T07:05:35;101399.00;;;13.77;66.90
64853;BME280;56050;55.558;-4.644;2023-05-11T07:08:02;101402.44;;;13.81;66.54
64853;BME280;56050;55.558;-4.644;2023-05-11T07:10:30;101409.00;;;13.87;66.72
64853;BME280;56050;55.558;-4.644;2023-05-11T07:12:55;101414.81;;;13.93;66.64
64853;BME280;56050;55.558;-4.644;2023-05-11T07:15:21;101412.09;;;13.96;66.50
64853;BME280;56050;55.558;-4.644;2023-05-11T07:17:46;101411.31;;;13.96;66.51
64853;BME280;56050;55.558;-4.644;2023-05-11T07:20:12;101414.78;;;13.96;66.56
64853;BME280;56050;55.558;-4.644;2023-05-11T07:22:37;101422.13;;;13.99;66.71
64853;BME280;56050;55.558;-4.644;2023-05-11T07:25:03;101421.38;;;14.02;66.68
64853;BME280;56050;55.558;-4.644;2023-05-11T07:27:28;101413.19;;;14.06;66.76
64853;BME280;56050;55.558;-4.644;2023-05-11T07:29:55;101424.41;;;14.11;66.64
64853;BME280;56050;55.558;-4.644;2023-05-11T07:32:21;101418.97;;;14.19;66.85
64853;BME280;56050;55.558;-4.644;2023-05-11T07:34:46;101428.63;;;14.27;66.79
64853;BME280;56050;55.558;-4.644;2023-05-11T07:37:12;101424.34;;;14.36;66.65
64853;BME280;56050;55.558;-4.644;2023-05-11T07:39:38;101424.25;;;14.54;66.71
64853;BME280;56050;55.558;-4.644;2023-05-11T07:42:03;101425.25;;;14.81;66.71
64853;BME280;56050;55.558;-4.644;2023-05-11T07:44:29;101427.78;;;15.09;66.58
64853;BME280;56050;55.558;-4.644;2023-05-11T07:46:55;101434.56;;;15.35;66.35
64853;BME280;56050;55.558;-4.644;2023-05-11T07:49:20;101433.63;;;15.52;66.00
64853;BME280;56050;55.558;-4.644;2023-05-11T07:51:46;101436.59;;;15.68;66.05
64853;BME280;56050;55.558;-4.644;2023-05-11T07:54:11;101434.94;;;15.78;65.46
64853;BME280;56050;55.558;-4.644;2023-05-11T07:56:37;101440.38;;;15.78;65.37
64853;BME280;56050;55.558;-4.644;2023-05-11T07:59:02;101434.13;;;15.81;65.25
64853;BME280;56050;55.558;-4.644;2023-05-11T08:01:28;101439.47;;;15.92;65.33
64853;BME280;56050;55.558;-4.644;2023-05-11T08:03:53;101445.50;;;16.06;65.70
64853;BME280;56050;55.558;-4.644;2023-05-11T08:06:18;101450.34;;;16.25;65.44
64853;BME280;56050;55.558;-4.644;2023-05-11T08:08:44;101454.16;;;16.31;65.23
64853;BME280;56050;55.558;-4.644;2023-05-11T08:11:09;101459.13;;;16.36;65.13
64853;BME280;56050;55.558;-4.644;2023-05-11T08:13:35;101464.88;;;16.45;65.20
64853;BME280;56050;55.558;-4.644;2023-05-11T08:16:00;101467.81;;;16.58;65.20
64853;BME280;56050;55.558;-4.644;2023-05-11T08:18:26;101477.03;;;16.68;64.88
64853;BME280;56050;55.558;-4.644;2023-05-11T08:20:51;101475.34;;;16.77;64.73
64853;BME280;56050;55.558;-4.644;2023-05-11T08:23:16;101471.75;;;16.84;64.69
64853;BME280;56050;55.558;-4.644;2023-05-11T08:25:53;101486.34;;;16.97;64.37
64853;BME280;56050;55.558;-4.644;2023-05-11T08:28:19;101483.81;;;17.10;64.43
64853;BME280;56050;55.558;-4.644;2023-05-11T08:30:45;101492.25;;;17.19;64.16
64853;BME280;56050;55.558;-4.644;2023-05-11T08:33:11;101492.97;;;17.23;63.83
64853;BME280;56050;55.558;-4.644;2023-05-11T08:35:39;101498.09;;;17.17;63.89
64853;BME280;56050;55.558;-4.644;2023-05-11T08:38:05;101502.88;;;17.10;63.72
64853;BME280;56050;55.558;-4.644;2023-05-11T08:40:30;101494.69;;;17.10;63.53
64853;BME280;56050;55.558;-4.644;2023-05-11T08:42:59;101498.56;;;17.12;63.43
64853;BME280;56050;55.558;-4.644;2023-05-11T08:45:25;101499.28;;;17.16;63.45
64853;BME280;56050;55.558;-4.644;2023-05-11T08:47:51;101502.34;;;17.18;63.39
64853;BME280;56050;55.558;-4.644;2023-05-11T08:50:17;101512.84;;;17.20;63.23
64853;BME280;56050;55.558;-4.644;2023-05-11T08:52:43;101507.06;;;17.18;63.24
64853;BME280;56050;55.558;-4.644;2023-05-11T08:55:09;101512.91;;;17.16;63.00
64853;BME280;56050;55.558;-4.644;2023-05-11T08:57:35;101515.22;;;17.18;63.26
64853;BME280;56050;55.558;-4.644;2023-05-11T09:00:01;101515.16;;;17.21;63.08
64853;BME280;56050;55.558;-4.644;2023-05-11T09:02:27;101515.47;;;17.27;62.95
64853;BME280;56050;55.558;-4.644;2023-05-11T09:04:53;101517.78;;;17.28;62.84
64853;BME280;56050;55.558;-4.644;2023-05-11T09:07:20;101521.69;;;17.27;62.87
64853;BME280;56050;55.558;-4.644;2023-05-11T09:09:46;101520.50;;;17.28;62.58
64853;BME280;56050;55.558;-4.644;2023-05-11T09:12:12;101524.41;;;17.27;62.68
64853;BME280;56050;55.558;-4.644;2023-05-11T09:14:38;101532.16;;;17.29;62.42
64853;BME280;56050;55.558;-4.644;2023-05-11T09:17:03;101530.63;;;17.28;62.46
64853;BME280;56050;55.558;-4.644;2023-05-11T09:19:29;101528.72;;;17.25;62.34
64853;BME280;56050;55.558;-4.644;2023-05-11T09:21:55;101525.56;;;17.26;62.35
64853;BME280;56050;55.558;-4.644;2023-05-11T09:24:22;101531.41;;;17.28;62.13
64853;BME280;56050;55.558;-4.644;2023-05-11T09:26:48;101523.94;;;17.32;62.18
64853;BME280;56050;55.558;-4.644;2023-05-11T09:29:13;101528.84;;;17.41;61.93
64853;BME280;56050;55.558;-4.644;2023-05-11T09:31:45;101527.91;;;17.51;62.02
64853;BME280;56050;55.558;-4.644;2023-05-11T09:36:36;101535.25;;;17.81;61.68
64853;BME280;56050;55.558;-4.644;2023-05-11T09:39:02;101534.59;;;17.96;61.66
64853;BME280;56050;55.558;-4.644;2023-05-11T09:41:29;101532.88;;;18.06;61.13
64853;BME280;56050;55.558;-4.644;2023-05-11T09:44:09;101537.84;;;18.11;61.06
64853;BME280;56050;55.558;-4.644;2023-05-11T09:46:39;101541.34;;;18.11;60.87
64853;BME280;56050;55.558;-4.644;2023-05-11T09:49:05;101540.47;;;18.14;60.94
64853;BME280;56050;55.558;-4.644;2023-05-11T09:51:38;101549.03;;;18.16;61.20
64853;BME280;56050;55.558;-4.644;2023-05-11T09:54:18;101542.81;;;18.16;60.97
64853;BME280;56050;55.558;-4.644;2023-05-11T09:56:50;101548.31;;;18.12;60.96
64853;BME280;56050;55.558;-4.644;2023-05-11T09:59:40;101547.63;;;18.08;60.82
64853;BME280;56050;55.558;-4.644;2023-05-11T10:02:15;101562.44;;;18.07;60.99
64853;BME280;56050;55.558;-4.644;2023-05-11T10:04:41;101561.31;;;18.05;60.77
64853;BME280;56050;55.558;-4.644;2023-05-11T10:07:06;101567.53;;;18.05;60.54
64853;BME280;56050;55.558;-4.644;2023-05-11T10:09:32;101561.53;;;18.14;60.88
64853;BME280;56050;55.558;-4.644;2023-05-11T10:11:58;101564.47;;;18.23;60.48
64853;BME280;56050;55.558;-4.644;2023-05-11T10:14:26;101567.88;;;18.31;60.43
64853;BME280;56050;55.558;-4.644;2023-05-11T10:16:52;101584.03;;;18.41;60.16
64853;BME280;56050;55.558;-4.644;2023-05-11T10:19:20;101584.69;;;18.49;59.80
64853;BME280;56050;55.558;-4.644;2023-05-11T10:21:46;101584.97;;;18.54;59.35
64853;BME280;56050;55.558;-4.644;2023-05-11T10:24:12;101587.22;;;18.59;59.47
64853;BME280;56050;55.558;-4.644;2023-05-11T10:26:38;101590.28;;;18.61;59.07
64853;BME280;56050;55.558;-4.644;2023-05-11T10:29:04;101591.06;;;18.62;58.96
64853;BME280;56050;55.558;-4.644;2023-05-11T10:31:30;101608.16;;;18.66;59.15
64853;BME280;56050;55.558;-4.644;2023-05-11T10:33:57;101605.69;;;18.71;58.99
64853;BME280;56050;55.558;-4.644;2023-05-11T10:36:24;101607.31;;;18.69;57.35
64853;BME280;56050;55.558;-4.644;2023-05-11T10:38:50;101604.91;;;18.51;58.04
64853;BME280;56050;55.558;-4.644;2023-05-11T10:41:31;101613.94;;;18.25;57.21
64853;BME280;56050;55.558;-4.644;2023-05-11T10:44:54;101607.03;;;17.97;57.85
64853;BME280;56050;55.558;-4.644;2023-05-11T10:50:13;101622.84;;;17.56;58.67
64853;BME280;56050;55.558;-4.644;2023-05-11T10:58:06;101628.34;;;17.22;58.76
64853;BME280;56050;55.558;-4.644;2023-05-11T11:03:12;101621.91;;;17.09;58.80
64853;BME280;56050;55.558;-4.644;2023-05-11T11:05:38;101631.59;;;17.10;58.87
64853;BME280;56050;55.558;-4.644;2023-05-11T11:08:04;101630.09;;;17.09;58.73
64853;BME280;56050;55.558;-4.644;2023-05-11T11:10:40;101627.75;;;17.08;58.64
64853;BME280;56050;55.558;-4.644;2023-05-11T11:13:13;101634.72;;;17.12;58.36
64853;BME280;56050;55.558;-4.644;2023-05-11T11:20:51;101638.50;;;17.18;57.91
64853;BME280;56050;55.558;-4.644;2023-05-11T11:24:11;101642.81;;;17.16;57.48
64853;BME280;56050;55.558;-4.644;2023-05-11T11:26:47;101638.16;;;17.16;57.91
64853;BME280;56050;55.558;-4.644;2023-05-11T11:29:13;101651.66;;;17.23;57.70
64853;BME280;56050;55.558;-4.644;2023-05-11T11:31:40;101646.22;;;17.23;57.72
64853;BME280;56050;55.558;-4.644;2023-05-11T11:39:24;101655.84;;;17.01;58.21
64853;BME280;56050;55.558;-4.644;2023-05-11T11:42:10;101656.66;;;16.98;58.17
64853;BME280;56050;55.558;-4.644;2023-05-11T11:44:36;101662.47;;;17.00;57.94
64853;BME280;56050;55.558;-4.644;2023-05-11T11:47:19;101667.13;;;16.99;58.20
64853;BME280;56050;55.558;-4.644;2023-05-11T11:49:49;101665.09;;;17.07;58.21
64853;BME280;56050;55.558;-4.644;2023-05-11T11:54:57;101666.44;;;17.26;57.22
64853;BME280;56050;55.558;-4.644;2023-05-11T11:59:54;101668.28;;;17.32;57.41
64853;BME280;56050;55.558;-4.644;2023-05-11T12:02:21;101667.44;;;17.39;57.47
64853;BME280;56050;55.558;-4.644;2023-05-11T12:07:40;101665.22;;;17.60;56.86
64853;BME280;56050;55.558;-4.644;2023-05-11T12:10:06;101666.59;;;17.72;56.94
64853;BME280;56050;55.558;-4.644;2023-05-11T12:12:32;101674.94;;;17.88;56.98
64853;BME280;56050;55.558;-4.644;2023-05-11T12:14:58;101672.38;;;18.01;56.82
64853;BME280;56050;55.558;-4.644;2023-05-11T12:17:27;101679.22;;;18.12;56.13
64853;BME280;56050;55.558;-4.644;2023-05-11T12:20:14;101677.50;;;18.22;55.69
64853;BME280;56050;55.558;-4.644;2023-05-11T12:22:41;101675.09;;;18.28;55.28
64853;BME280;56050;55.558;-4.644;2023-05-11T12:25:07;101673.47;;;18.30;55.22
64853;BME280;56050;55.558;-4.644;2023-05-11T12:27:33;101673.06;;;18.32;55.61
64853;BME280;56050;55.558;-4.644;2023-05-11T12:29:58;101677.28;;;18.36;55.03
64853;BME280;56050;55.558;-4.644;2023-05-11T12:32:28;101682.31;;;18.38;55.58
64853;BME280;56050;55.558;-4.644;2023-05-11T12:35:03;101687.72;;;18.41;55.34
64853;BME280;56050;55.558;-4.644;2023-05-11T12:37:30;101683.38;;;18.44;55.11
64853;BME280;56050;55.558;-4.644;2023-05-11T12:39:57;101694.25;;;18.47;54.96
64853;BME280;56050;55.558;-4.644;2023-05-11T12:42:22;101692.56;;;18.53;55.20
64853;BME280;56050;55.558;-4.644;2023-05-11T12:44:48;101701.00;;;18.62;55.27
64853;BME280;56050;55.558;-4.644;2023-05-11T12:47:14;101699.19;;;18.75;54.40
64853;BME280;56050;55.558;-4.644;2023-05-11T12:49:42;101702.22;;;18.81;53.25
64853;BME280;56050;55.558;-4.644;2023-05-11T12:52:08;101702.16;;;18.85;54.03
64853;BME280;56050;55.558;-4.644;2023-05-11T12:54:39;101706.63;;;18.95;53.99
64853;BME280;56050;55.558;-4.644;2023-05-11T12:57:21;101707.91;;;19.10;53.84
64853;BME280;56050;55.558;-4.644;2023-05-11T12:59:47;101706.53;;;19.21;52.91
64853;BME280;56050;55.558;-4.644;2023-05-11T13:02:17;101709.25;;;19.21;53.02
64853;BME280;56050;55.558;-4.644;2023-05-11T13:04:44;101702.25;;;19.20;53.33
64853;BME280;56050;55.558;-4.644;2023-05-11T13:07:10;101708.47;;;19.21;53.40
64853;BME280;56050;55.558;-4.644;2023-05-11T13:09:36;101713.16;;;19.20;52.54
64853;BME280;56050;55.558;-4.644;2023-05-11T13:14:33;101705.81;;;19.17;53.23
64853;BME280;56050;55.558;-4.644;2023-05-11T13:16:58;101706.88;;;19.23;53.24
64853;BME280;56050;55.558;-4.644;2023-05-11T13:19:28;101711.81;;;19.28;52.86
64853;BME280;56050;55.558;-4.644;2023-05-11T13:21:54;101714.91;;;19.30;52.97
64853;BME280;56050;55.558;-4.644;2023-05-11T13:24:21;101715.69;;;19.31;52.67
64853;BME280;56050;55.558;-4.644;2023-05-11T13:26:47;101714.06;;;19.33;52.80
64853;BME280;56050;55.558;-4.644;2023-05-11T13:29:12;101722.63;;;19.35;53.02
64853;BME280;56050;55.558;-4.644;2023-05-11T13:31:47;101727.66;;;19.37;52.70
64853;BME280;56050;55.558;-4.644;2023-05-11T13:34:13;101719.47;;;19.37;52.54
64853;BME280;56050;55.558;-4.644;2023-05-11T13:36:39;101732.31;;;19.40;52.73
64853;BME280;56050;55.558;-4.644;2023-05-11T13:39:05;101729.84;;;19.46;51.24
64853;BME280;56050;55.558;-4.644;2023-05-11T13:41:31;101734.47;;;19.49;51.35
64853;BME280;56050;55.558;-4.644;2023-05-11T13:43:56;101734.31;;;19.56;51.59
64853;BME280;56050;55.558;-4.644;2023-05-11T13:46:22;101736.06;;;19.66;50.74
64853;BME280;56050;55.558;-4.644;2023-05-11T13:48:47;101746.50;;;19.71;50.35
64853;BME280;56050;55.558;-4.644;2023-05-11T13:51:13;101746.56;;;19.67;49.11
64853;BME280;56050;55.558;-4.644;2023-05-11T13:53:38;101745.53;;;19.61;50.06
64853;BME280;56050;55.558;-4.644;2023-05-11T13:56:04;101752.53;;;19.62;50.34
64853;BME280;56050;55.558;-4.644;2023-05-11T13:58:30;101757.94;;;19.66;50.66
64853;BME280;56050;55.558;-4.644;2023-05-11T14:00:55;101754.94;;;19.60;50.79
64853;BME280;56050;55.558;-4.644;2023-05-11T14:03:20;101755.22;;;19.46;51.15
64853;BME280;56050;55.558;-4.644;2023-05-11T14:05:48;101753.41;;;19.40;51.46
64853;BME280;56050;55.558;-4.644;2023-05-11T14:08:13;101766.69;;;19.38;51.47
64853;BME280;56050;55.558;-4.644;2023-05-11T14:10:39;101773.06;;;19.31;50.33
64853;BME280;56050;55.558;-4.644;2023-05-11T14:13:04;101767.03;;;19.20;49.78
64853;BME280;56050;55.558;-4.644;2023-05-11T14:15:33;101774.66;;;19.09;50.67
64853;BME280;56050;55.558;-4.644;2023-05-11T14:17:59;101775.91;;;19.04;51.02
64853;BME280;56050;55.558;-4.644;2023-05-11T14:20:29;101774.38;;;19.03;51.15
64853;BME280;56050;55.558;-4.644;2023-05-11T14:22:56;101785.66;;;19.05;51.49
64853;BME280;56050;55.558;-4.644;2023-05-11T14:25:21;101783.63;;;19.09;51.43
64853;BME280;56050;55.558;-4.644;2023-05-11T14:27:47;101784.75;;;19.12;51.12
64853;BME280;56050;55.558;-4.644;2023-05-11T14:30:14;101792.53;;;19.13;51.10
64853;BME280;56050;55.558;-4.644;2023-05-11T14:32:39;101795.19;;;19.17;50.64
64853;BME280;56050;55.558;-4.644;2023-05-11T14:35:05;101796.31;;;19.19;50.79
64853;BME280;56050;55.558;-4.644;2023-05-11T14:37:31;101793.50;;;19.23;50.55
64853;BME280;56050;55.558;-4.644;2023-05-11T14:39:56;101802.78;;;19.29;50.48
64853;BME280;56050;55.558;-4.644;2023-05-11T14:42:21;101799.53;;;19.34;50.09
64853;BME280;56050;55.558;-4.644;2023-05-11T14:44:47;101800.75;;;19.33;50.52
64853;BME280;56050;55.558;-4.644;2023-05-11T14:47:13;101802.28;;;19.34;50.55
64853;BME280;56050;55.558;-4.644;2023-05-11T14:49:38;101805.84;;;19.31;50.74
64853;BME280;56050;55.558;-4.644;2023-05-11T14:52:04;101811.41;;;19.27;50.76
64853;BME280;56050;55.558;-4.644;2023-05-11T14:54:29;101802.91;;;19.22;50.37
64853;BME280;56050;55.558;-4.644;2023-05-11T14:56:55;101807.59;;;19.21;50.65
64853;BME280;56050;55.558;-4.644;2023-05-11T14:59:21;101808.38;;;19.22;50.70
64853;BME280;56050;55.558;-4.644;2023-05-11T15:01:49;101803.25;;;19.24;50.68
64853;BME280;56050;55.558;-4.644;2023-05-11T15:04:14;101807.47;;;19.28;51.02
64853;BME280;56050;55.558;-4.644;2023-05-11T15:06:40;101811.31;;;19.31;50.65
64853;BME280;56050;55.558;-4.644;2023-05-11T15:09:07;101817.16;;;19.33;50.86
64853;BME280;56050;55.558;-4.644;2023-05-11T15:11:32;101822.19;;;19.34;50.62
64853;BME280;56050;55.558;-4.644;2023-05-11T15:13:58;101828.41;;;19.39;50.63
64853;BME280;56050;55.558;-4.644;2023-05-11T15:16:23;101824.41;;;19.43;50.74
64853;BME280;56050;55.558;-4.644;2023-05-11T15:18:50;101833.22;;;19.51;50.75
64853;BME280;56050;55.558;-4.644;2023-05-11T15:21:15;101846.34;;;19.59;50.34
64853;BME280;56050;55.558;-4.644;2023-05-11T15:23:41;101862.59;;;19.66;49.65
64853;BME280;56050;55.558;-4.644;2023-05-11T15:26:06;101869.59;;;19.67;49.40
64853;BME280;56050;55.558;-4.644;2023-05-11T15:28:32;101865.41;;;19.63;49.29
64853;BME280;56050;55.558;-4.644;2023-05-11T15:30:57;101870.38;;;19.48;49.07
64853;BME280;56050;55.558;-4.644;2023-05-11T15:33:23;101877.03;;;19.24;48.82
64853;BME280;56050;55.558;-4.644;2023-05-11T15:35:48;101876.69;;;18.99;49.66
64853;BME280;56050;55.558;-4.644;2023-05-11T15:38:15;101889.44;;;18.82;50.01
64853;BME280;56050;55.558;-4.644;2023-05-11T15:40:41;101889.66;;;18.68;50.38
64853;BME280;56050;55.558;-4.644;2023-05-11T15:43:06;101895.66;;;18.56;50.85
64853;BME280;56050;55.558;-4.644;2023-05-11T15:45:32;101889.63;;;18.41;51.35
64853;BME280;56050;55.558;-4.644;2023-05-11T15:47:58;101908.94;;;18.24;51.97
64853;BME280;56050;55.558;-4.644;2023-05-11T15:50:23;101908.72;;;18.11;52.38
64853;BME280;56050;55.558;-4.644;2023-05-11T15:52:49;101915.47;;;18.03;52.79
64853;BME280;56050;55.558;-4.644;2023-05-11T15:55:14;101908.53;;;17.95;53.10
64853;BME280;56050;55.558;-4.644;2023-05-11T15:57:40;101911.34;;;17.88;53.26
64853;BME280;56050;55.558;-4.644;2023-05-11T16:00:06;101924.25;;;17.84;53.47
64853;BME280;56050;55.558;-4.644;2023-05-11T16:02:34;101929.69;;;17.84;53.52
64853;BME280;56050;55.558;-4.644;2023-05-11T16:04:59;101925.38;;;17.86;53.55
64853;BME280;56050;55.558;-4.644;2023-05-11T16:07:25;101928.94;;;17.83;53.43
64853;BME280;56050;55.558;-4.644;2023-05-11T16:09:51;101931.25;;;17.81;53.66
64853;BME280;56050;55.558;-4.644;2023-05-11T16:12:17;101935.56;;;17.79;53.99
64853;BME280;56050;55.558;-4.644;2023-05-11T16:14:42;101936.78;;;17.78;53.82